sensor_id;sensor_type;location;lat;lon;timestamp;P1;durP1;ratioP1;P2;durP2;ratioP2
8171;SDS011;4127;47.908;10.850;2024-02-14T00:01:43;5.40;;;2.67;;
8171;SDS011;4127;47.908;10.850;2024-02-14T00:04:20;3.63;;;2.90;;
8171;SDS011;4127;47.908;10.850;2024-02-14T00:06:47;3.77;;;2.73;;
8171;SDS011;4127;47.908;10.850;2024-02-14T00:09:14;4.30;;;3.07;;
8171;SDS011;4127;47.908;10.850;2024-02-14T00:11:41;3.03;;;2.73;;
8171;SDS011;4127;47.908;10.850;2024-02-14T00:14:08;5.23;;;3.30;;
8171;SDS011;4127;47.908;10.850;2024-02-14T00:16:35;4.67;;;3.30;;
8171;SDS011;4127;47.908;10.850;2024-02-14T00:19:05;4.23;;;3.00;;
8171;SDS011;4127;47.908;10.850;2024-02-14T00:21:32;5.87;;;3.57;;
8171;SDS011;4127;47.908;10.850;2024-02-14T00:24:00;4.80;;;4.13;;
8171;SDS011;4127;47.908;10.850;2024-02-14T00:26:28;7.03;;;4.43;;
8171;SDS011;4127;47.908;10.850;2024-02-14T00:28:55;5.10;;;4.17;;
8171;SDS011;4127;47.908;10.850;2024-02-14T00:31:22;6.80;;;4.50;;
8171;SDS011;4127;47.908;10.850;2024-02-14T00:33:49;6.77;;;4.87;;
8171;SDS011;4127;47.908;10.850;2024-02-14T00:36:16;6.07;;;4.33;;
8171;SDS011;4127;47.908;10.850;2024-02-14T00:38:44;6.67;;;4.70;;
8171;SDS011;4127;47.908;10.850;2024-02-14T00:41:11;5.27;;;4.17;;
8171;SDS011;4127;47.908;10.850;2024-02-14T00:43:38;5.53;;;4.33;;
8171;SDS011;4127;47.908;10.850;2024-02-14T00:46:05;5.47;;;4.40;;
8171;SDS011;4127;47.908;10.850;2024-02-14T00:48:32;5.27;;;3.70;;
8171;SDS011;4127;47.908;10.850;2024-02-14T00:50:59;6.90;;;4.13;;
8171;SDS011;4127;47.908;10.850;2024-02-14T00:53:26;6.67;;;4.47;;
8171;SDS011;4127;47.908;10.850;2024-02-14T00:55:53;9.10;;;4.80;;
8171;SDS011;4127;47.908;10.850;2024-02-14T00:58:20;5.57;;;4.33;;
8171;SDS011;4127;47.908;10.850;2024-02-14T01:00:47;9.17;;;4.80;;
8171;SDS011;4127;47.908;10.850;2024-02-14T01:03:14;7.57;;;5.07;;
8171;SDS011;4127;47.908;10.850;2024-02-14T01:05:42;8.30;;;4.37;;
8171;SDS011;4127;47.908;10.850;2024-02-14T01:08:09;6.33;;;4.20;;
8171;SDS011;4127;47.908;10.850;2024-02-14T01:10:37;7.03;;;3.90;;
8171;SDS011;4127;47.908;10.850;2024-02-14T01:13:03;4.90;;;4.23;;
8171;SDS011;4127;47.908;10.850;2024-02-14T01:15:32;6.77;;;4.57;;
8171;SDS011;4127;47.908;10.850;2024-02-14T01:18:02;6.33;;;4.00;;
8171;SDS011;4127;47.908;10.850;2024-02-14T01:20:29;6.87;;;4.47;;
8171;SDS011;4127;47.908;10.850;2024-02-14T01:22:56;4.33;;;3.83;;
8171;SDS011;4127;47.908;10.850;2024-02-14T01:25:23;4.03;;;3.20;;
8171;SDS011;4127;47.908;10.850;2024-02-14T01:27:50;3.77;;;3.23;;
8171;SDS011;4127;47.908;10.850;2024-02-14T01:30:19;6.47;;;3.70;;
8171;SDS011;4127;47.908;10.850;2024-02-14T01:32:54;5.83;;;3.63;;
8171;SDS011;4127;47.908;10.850;2024-02-14T01:35:22;3.27;;;2.53;;
8171;SDS011;4127;47.908;10.850;2024-02-14T01:37:49;3.50;;;2.60;;
8171;SDS011;4127;47.908;10.850;2024-02-14T01:40:19;3.47;;;2.93;;
8171;SDS011;4127;47.908;10.850;2024-02-14T01:42:48;2.40;;;2.20;;
8171;SDS011;4127;47.908;10.850;2024-02-14T01:45:21;2.40;;;2.20;;
8171;SDS011;4127;47.908;10.850;2024-02-14T01:47:51;4.13;;;3.10;;
8171;SDS011;4127;47.908;10.850;2024-02-14T01:50:20;3.53;;;2.90;;
8171;SDS011;4127;47.908;10.850;2024-02-14T01:52:56;2.17;;;2.07;;
8171;SDS011;4127;47.908;10.850;2024-02-14T01:55:26;4.23;;;2.47;;
8171;SDS011;4127;47.908;10.850;2024-02-14T01:57:54;3.10;;;2.40;;
8171;SDS011;4127;47.908;10.850;2024-02-14T02:00:24;3.20;;;2.53;;
8171;SDS011;4127;47.908;10.850;2024-02-14T02:02:51;3.13;;;2.40;;
8171;SDS011;4127;47.908;10.850;2024-02-14T02:05:18;3.33;;;2.67;;
8171;SDS011;4127;47.908;10.850;2024-02-14T02:07:46;3.43;;;3.13;;
8171;SDS011;4127;47.908;10.850;2024-02-14T02:10:15;4.33;;;2.97;;
8171;SDS011;4127;47.908;10.850;2024-02-14T02:12:48;3.10;;;2.63;;
8171;SDS011;4127;47.908;10.850;2024-02-14T02:15:17;2.27;;;2.07;;
8171;SDS011;4127;47.908;10.850;2024-02-14T02:17:44;2.33;;;2.13;;
8171;SDS011;4127;47.908;10.850;2024-02-14T02:20:23;2.30;;;2.10;;
8171;SDS011;4127;47.908;10.850;2024-02-14T02:22:50;2.57;;;2.30;;
8171;SDS011;4127;47.908;10.850;2024-02-14T02:25:17;3.43;;;2.00;;
8171;SDS011;4127;47.908;10.850;2024-02-14T02:27:49;2.50;;;2.30;;
8171;SDS011;4127;47.908;10.850;2024-02-14T02:30:20;2.07;;;1.90;;
8171;SDS011;4127;47.908;10.850;2024-02-14T02:33:07;2.40;;;2.20;;
8171;SDS011;4127;47.908;10.850;2024-02-14T02:35:41;2.03;;;1.93;;
8171;SDS011;4127;47.908;10.850;2024-02-14T02:38:11;2.10;;;1.90;;
8171;SDS011;4127;47.908;10.850;2024-02-14T02:40:38;2.23;;;2.03;;
8171;SDS011;4127;47.908;10.850;2024-02-14T02:43:08;2.20;;;2.00;;
8171;SDS011;4127;47.908;10.850;2024-02-14T02:45:36;2.90;;;1.90;;
8171;SDS011;4127;47.908;10.850;2024-02-14T02:48:04;1.80;;;1.70;;
8171;SDS011;4127;47.908;10.850;2024-02-14T02:50:32;1.87;;;1.70;;
8171;SDS011;4127;47.908;10.850;2024-02-14T02:53:00;1.83;;;1.67;;
8171;SDS011;4127;47.908;10.850;2024-02-14T02:55:27;1.77;;;1.67;;
8171;SDS011;4127;47.908;10.850;2024-02-14T02:57:54;1.80;;;1.70;;
8171;SDS011;4127;47.908;10.850;2024-02-14T03:00:22;2.10;;;1.90;;
8171;SDS011;4127;47.908;10.850;2024-02-14T03:02:49;1.70;;;1.60;;
8171;SDS011;4127;47.908;10.850;2024-02-14T03:05:17;1.63;;;1.53;;
8171;SDS011;4127;47.908;10.850;2024-02-14T03:07:45;1.63;;;1.53;;
8171;SDS011;4127;47.908;10.850;2024-02-14T03:10:17;1.60;;;1.50;;
8171;SDS011;4127;47.908;10.850;2024-02-14T03:12:50;1.60;;;1.50;;
8171;SDS011;4127;47.908;10.850;2024-02-14T03:15:18;1.80;;;1.70;;
8171;SDS011;4127;47.908;10.850;2024-02-14T03:17:46;2.13;;;1.60;;
8171;SDS011;4127;47.908;10.850;2024-02-14T03:20:16;1.70;;;1.60;;
8171;SDS011;4127;47.908;10.850;2024-02-14T03:22:44;2.37;;;1.70;;
8171;SDS011;4127;47.908;10.850;2024-02-14T03:25:21;2.27;;;1.53;;
8171;SDS011;4127;47.908;10.850;2024-02-14T03:27:50;1.67;;;1.57;;
8171;SDS011;4127;47.908;10.850;2024-02-14T03:30:19;1.60;;;1.50;;
8171;SDS011;4127;47.908;10.850;2024-02-14T03:32:48;2.30;;;1.50;;
8171;SDS011;4127;47.908;10.850;2024-02-14T03:35:15;1.63;;;1.53;;
8171;SDS011;4127;47.908;10.850;2024-02-14T03:37:45;1.80;;;1.53;;
8171;SDS011;4127;47.908;10.850;2024-02-14T03:40:15;1.87;;;1.77;;
8171;SDS011;4127;47.908;10.850;2024-02-14T03:42:43;1.80;;;1.70;;
8171;SDS011;4127;47.908;10.850;2024-02-14T03:45:10;1.50;;;1.40;;
8171;SDS011;4127;47.908;10.850;2024-02-14T03:47:37;1.70;;;1.60;;
8171;SDS011;4127;47.908;10.850;2024-02-14T03:50:08;1.83;;;1.73;;
8171;SDS011;4127;47.908;10.850;2024-02-14T03:52:35;1.80;;;1.70;;
8171;SDS011;4127;47.908;10.850;2024-02-14T03:55:02;2.30;;;1.47;;
8171;SDS011;4127;47.908;10.850;2024-02-14T03:57:30;1.43;;;1.40;;
8171;SDS011;4127;47.908;10.850;2024-02-14T03:59:58;1.83;;;1.70;;
8171;SDS011;4127;47.908;10.850;2024-02-14T04:02:28;1.67;;;1.23;;
8171;SDS011;4127;47.908;10.850;2024-02-14T04:04:55;1.70;;;1.50;;
8171;SDS011;4127;47.908;10.850;2024-02-14T04:07:22;1.97;;;1.70;;
8171;SDS011;4127;47.908;10.850;2024-02-14T04:09:49;1.73;;;1.57;;
8171;SDS011;4127;47.908;10.850;2024-02-14T04:12:16;1.77;;;1.53;;
8171;SDS011;4127;47.908;10.850;2024-02-14T04:14:43;1.80;;;1.70;;
8171;SDS011;4127;47.908;10.850;2024-02-14T04:17:10;1.90;;;1.70;;
8171;SDS011;4127;47.908;10.850;2024-02-14T04:19:39;1.97;;;1.70;;
8171;SDS011;4127;47.908;10.850;2024-02-14T04:22:06;1.40;;;1.30;;
8171;SDS011;4127;47.908;10.850;2024-02-14T04:24:34;2.00;;;1.87;;
8171;SDS011;4127;47.908;10.850;2024-02-14T04:27:01;1.70;;;1.57;;
8171;SDS011;4127;47.908;10.850;2024-02-14T04:29:31;1.60;;;1.50;;
8171;SDS011;4127;47.908;10.850;2024-02-14T04:32:00;1.70;;;1.60;;
8171;SDS011;4127;47.908;10.850;2024-02-14T04:34:28;1.60;;;1.50;;
8171;SDS011;4127;47.908;10.850;2024-02-14T04:36:56;2.03;;;1.50;;
8171;SDS011;4127;47.908;10.850;2024-02-14T04:39:24;2.50;;;1.40;;
8171;SDS011;4127;47.908;10.850;2024-02-14T04:41:51;1.60;;;1.50;;
8171;SDS011;4127;47.908;10.850;2024-02-14T04:44:27;2.00;;;1.80;;
8171;SDS011;4127;47.908;10.850;2024-02-14T04:46:55;2.43;;;1.30;;
8171;SDS011;4127;47.908;10.850;2024-02-14T04:49:25;1.30;;;1.20;;
8171;SDS011;4127;47.908;10.850;2024-02-14T04:51:53;2.37;;;1.67;;
8171;SDS011;4127;47.908;10.850;2024-02-14T04:54:20;2.13;;;1.93;;
8171;SDS011;4127;47.908;10.850;2024-02-14T04:56:47;1.70;;;1.60;;
8171;SDS011;4127;47.908;10.850;2024-02-14T04:59:20;1.80;;;1.70;;
8171;SDS011;4127;47.908;10.850;2024-02-14T05:01:47;3.37;;;2.40;;
8171;SDS011;4127;47.908;10.850;2024-02-14T05:04:14;1.63;;;1.53;;
8171;SDS011;4127;47.908;10.850;2024-02-14T05:06:43;1.70;;;1.60;;
8171;SDS011;4127;47.908;10.850;2024-02-14T05:09:10;1.70;;;1.60;;
8171;SDS011;4127;47.908;10.850;2024-02-14T05:11:37;1.70;;;1.60;;
8171;SDS011;4127;47.908;10.850;2024-02-14T05:14:04;2.03;;;1.40;;
8171;SDS011;4127;47.908;10.850;2024-02-14T05:16:31;2.07;;;1.70;;
8171;SDS011;4127;47.908;10.850;2024-02-14T05:18:58;1.50;;;1.40;;
8171;SDS011;4127;47.908;10.850;2024-02-14T05:21:26;2.50;;;1.43;;
8171;SDS011;4127;47.908;10.850;2024-02-14T05:23:54;1.97;;;1.80;;
8171;SDS011;4127;47.908;10.850;2024-02-14T05:26:21;2.20;;;1.67;;
8171;SDS011;4127;47.908;10.850;2024-02-14T05:28:48;2.27;;;1.67;;
8171;SDS011;4127;47.908;10.850;2024-02-14T05:31:15;1.53;;;1.43;;
8171;SDS011;4127;47.908;10.850;2024-02-14T05:33:42;1.50;;;1.40;;
8171;SDS011;4127;47.908;10.850;2024-02-14T05:36:10;2.43;;;1.63;;
8171;SDS011;4127;47.908;10.850;2024-02-14T05:38:37;2.00;;;1.67;;
8171;SDS011;4127;47.908;10.850;2024-02-14T05:41:04;2.73;;;2.13;;
8171;SDS011;4127;47.908;10.850;2024-02-14T05:43:31;1.73;;;1.57;;
8171;SDS011;4127;47.908;10.850;2024-02-14T05:45:58;1.67;;;1.50;;
8171;SDS011;4127;47.908;10.850;2024-02-14T05:48:24;2.17;;;1.90;;
8171;SDS011;4127;47.908;10.850;2024-02-14T05:50:52;1.73;;;1.40;;
8171;SDS011;4127;47.908;10.850;2024-02-14T05:53:19;2.60;;;1.60;;
8171;SDS011;4127;47.908;10.850;2024-02-14T05:55:48;2.90;;;2.20;;
8171;SDS011;4127;47.908;10.850;2024-02-14T05:58:15;2.20;;;2.00;;
8171;SDS011;4127;47.908;10.850;2024-02-14T06:00:42;3.37;;;3.07;;
8171;SDS011;4127;47.908;10.850;2024-02-14T06:03:09;18.23;;;14.37;;
8171;SDS011;4127;47.908;10.850;2024-02-14T06:05:36;12.53;;;10.07;;
8171;SDS011;4127;47.908;10.850;2024-02-14T06:08:03;5.63;;;5.10;;
8171;SDS011;4127;47.908;10.850;2024-02-14T06:10:30;3.90;;;3.50;;
8171;SDS011;4127;47.908;10.850;2024-02-14T06:12:57;2.80;;;2.33;;
8171;SDS011;4127;47.908;10.850;2024-02-14T06:15:24;2.53;;;2.23;;
8171;SDS011;4127;47.908;10.850;2024-02-14T06:17:50;4.60;;;2.50;;
8171;SDS011;4127;47.908;10.850;2024-02-14T06:20:18;2.07;;;1.83;;
8171;SDS011;4127;47.908;10.850;2024-02-14T06:22:45;2.10;;;1.90;;
8171;SDS011;4127;47.908;10.850;2024-02-14T06:25:26;2.23;;;2.00;;
8171;SDS011;4127;47.908;10.850;2024-02-14T06:27:53;2.10;;;1.90;;
8171;SDS011;4127;47.908;10.850;2024-02-14T06:30:20;2.57;;;1.80;;
8171;SDS011;4127;47.908;10.850;2024-02-14T06:32:47;1.60;;;1.47;;
8171;SDS011;4127;47.908;10.850;2024-02-14T06:35:15;2.77;;;1.87;;
8171;SDS011;4127;47.908;10.850;2024-02-14T06:37:45;1.70;;;1.60;;
8171;SDS011;4127;47.908;10.850;2024-02-14T06:40:25;1.70;;;1.60;;
8171;SDS011;4127;47.908;10.850;2024-02-14T06:42:53;2.30;;;1.50;;
8171;SDS011;4127;47.908;10.850;2024-02-14T06:45:21;2.57;;;2.00;;
8171;SDS011;4127;47.908;10.850;2024-02-14T06:47:48;2.43;;;1.83;;
8171;SDS011;4127;47.908;10.850;2024-02-14T06:50:15;2.60;;;1.80;;
8171;SDS011;4127;47.908;10.850;2024-02-14T06:52:42;2.00;;;1.80;;
8171;SDS011;4127;47.908;10.850;2024-02-14T06:55:09;2.73;;;1.90;;
8171;SDS011;4127;47.908;10.850;2024-02-14T06:57:35;2.00;;;1.73;;
8171;SDS011;4127;47.908;10.850;2024-02-14T07:00:03;1.90;;;1.80;;
8171;SDS011;4127;47.908;10.850;2024-02-14T07:02:33;2.00;;;1.67;;
8171;SDS011;4127;47.908;10.850;2024-02-14T07:05:00;2.10;;;1.67;;
8171;SDS011;4127;47.908;10.850;2024-02-14T07:07:28;2.20;;;2.00;;
8171;SDS011;4127;47.908;10.850;2024-02-14T07:09:55;1.90;;;1.70;;
8171;SDS011;4127;47.908;10.850;2024-02-14T07:12:22;3.90;;;3.50;;
8171;SDS011;4127;47.908;10.850;2024-02-14T07:14:50;6.00;;;4.40;;
8171;SDS011;4127;47.908;10.850;2024-02-14T07:17:17;8.83;;;5.97;;
8171;SDS011;4127;47.908;10.850;2024-02-14T07:19:44;4.73;;;2.90;;
8171;SDS011;4127;47.908;10.850;2024-02-14T07:22:16;2.50;;;2.30;;
8171;SDS011;4127;47.908;10.850;2024-02-14T07:24:45;3.17;;;2.40;;
8171;SDS011;4127;47.908;10.850;2024-02-14T07:27:15;2.30;;;2.10;;
8171;SDS011;4127;47.908;10.850;2024-02-14T07:29:45;2.67;;;2.37;;
8171;SDS011;4127;47.908;10.850;2024-02-14T07:32:12;2.20;;;2.00;;
8171;SDS011;4127;47.908;10.850;2024-02-14T07:34:39;2.27;;;2.07;;
8171;SDS011;4127;47.908;10.850;2024-02-14T07:37:10;3.87;;;1.60;;
8171;SDS011;4127;47.908;10.850;2024-02-14T07:39:37;2.20;;;2.00;;
8171;SDS011;4127;47.908;10.850;2024-02-14T07:42:04;1.80;;;1.50;;
8171;SDS011;4127;47.908;10.850;2024-02-14T07:44:32;2.10;;;1.80;;
8171;SDS011;4127;47.908;10.850;2024-02-14T07:46:59;2.00;;;1.90;;
8171;SDS011;4127;47.908;10.850;2024-02-14T07:49:29;2.13;;;1.93;;
8171;SDS011;4127;47.908;10.850;2024-02-14T07:51:57;1.97;;;1.60;;
8171;SDS011;4127;47.908;10.850;2024-02-14T07:54:24;1.60;;;1.50;;
8171;SDS011;4127;47.908;10.850;2024-02-14T07:56:51;1.90;;;1.70;;
8171;SDS011;4127;47.908;10.850;2024-02-14T07:59:18;1.40;;;1.30;;
8171;SDS011;4127;47.908;10.850;2024-02-14T08:01:46;1.73;;;1.47;;
8171;SDS011;4127;47.908;10.850;2024-02-14T08:04:14;1.77;;;1.67;;
8171;SDS011;4127;47.908;10.850;2024-02-14T08:06:44;1.30;;;1.20;;
8171;SDS011;4127;47.908;10.850;2024-02-14T08:09:13;2.23;;;1.50;;
8171;SDS011;4127;47.908;10.850;2024-02-14T08:11:39;1.97;;;1.70;;
8171;SDS011;4127;47.908;10.850;2024-02-14T08:14:07;2.20;;;1.87;;
8171;SDS011;4127;47.908;10.850;2024-02-14T08:16:34;1.70;;;1.60;;
8171;SDS011;4127;47.908;10.850;2024-02-14T08:19:02;1.80;;;1.57;;
8171;SDS011;4127;47.908;10.850;2024-02-14T08:21:29;1.70;;;1.60;;
8171;SDS011;4127;47.908;10.850;2024-02-14T08:23:58;1.63;;;1.53;;
8171;SDS011;4127;47.908;10.850;2024-02-14T08:26:27;1.50;;;1.40;;
8171;SDS011;4127;47.908;10.850;2024-02-14T08:28:55;1.60;;;1.50;;
8171;SDS011;4127;47.908;10.850;2024-02-14T08:31:22;1.60;;;1.50;;
8171;SDS011;4127;47.908;10.850;2024-02-14T08:33:49;1.63;;;1.53;;
8171;SDS011;4127;47.908;10.850;2024-02-14T08:36:17;1.40;;;1.30;;
8171;SDS011;4127;47.908;10.850;2024-02-14T08:38:46;2.10;;;1.60;;
8171;SDS011;4127;47.908;10.850;2024-02-14T08:41:14;1.50;;;1.40;;
8171;SDS011;4127;47.908;10.850;2024-02-14T08:43:40;1.43;;;1.33;;
8171;SDS011;4127;47.908;10.850;2024-02-14T08:46:12;1.40;;;1.30;;
8171;SDS011;4127;47.908;10.850;2024-02-14T08:48:40;1.60;;;1.50;;
8171;SDS011;4127;47.908;10.850;2024-02-14T08:51:14;1.50;;;1.40;;
8171;SDS011;4127;47.908;10.850;2024-02-14T08:53:41;1.60;;;1.50;;
8171;SDS011;4127;47.908;10.850;2024-02-14T08:56:12;1.70;;;1.60;;
8171;SDS011;4127;47.908;10.850;2024-02-14T08:58:40;1.00;;;1.00;;
8171;SDS011;4127;47.908;10.850;2024-02-14T09:01:07;1.70;;;1.60;;
8171;SDS011;4127;47.908;10.850;2024-02-14T09:03:44;9.97;;;6.63;;
8171;SDS011;4127;47.908;10.850;2024-02-14T09:06:16;2.20;;;2.00;;
8171;SDS011;4127;47.908;10.850;2024-02-14T09:08:46;1.40;;;1.30;;
8171;SDS011;4127;47.908;10.850;2024-02-14T09:11:14;1.90;;;1.50;;
8171;SDS011;4127;47.908;10.850;2024-02-14T09:13:41;1.80;;;1.70;;
8171;SDS011;4127;47.908;10.850;2024-02-14T09:16:08;2.50;;;2.00;;
8171;SDS011;4127;47.908;10.850;2024-02-14T09:18:40;1.80;;;1.70;;
8171;SDS011;4127;47.908;10.850;2024-02-14T09:21:07;1.80;;;1.40;;
8171;SDS011;4127;47.908;10.850;2024-02-14T09:23:35;1.40;;;1.30;;
8171;SDS011;4127;47.908;10.850;2024-02-14T09:26:06;1.37;;;1.27;;
8171;SDS011;4127;47.908;10.850;2024-02-14T09:28:33;1.40;;;1.30;;
8171;SDS011;4127;47.908;10.850;2024-02-14T09:31:01;1.40;;;1.30;;
8171;SDS011;4127;47.908;10.850;2024-02-14T09:33:30;1.60;;;1.50;;
8171;SDS011;4127;47.908;10.850;2024-02-14T09:35:57;1.33;;;1.20;;
8171;SDS011;4127;47.908;10.850;2024-02-14T09:38:24;1.40;;;1.30;;
8171;SDS011;4127;47.908;10.850;2024-02-14T09:40:53;1.40;;;1.40;;
8171;SDS011;4127;47.908;10.850;2024-02-14T09:43:38;1.60;;;1.50;;
8171;SDS011;4127;47.908;10.850;2024-02-14T09:46:10;1.60;;;1.50;;
8171;SDS011;4127;47.908;10.850;2024-02-14T09:48:43;1.13;;;1.13;;
8171;SDS011;4127;47.908;10.850;2024-02-14T09:51:12;1.43;;;1.33;;
8171;SDS011;4127;47.908;10.850;2024-02-14T09:53:40;1.43;;;1.33;;
8171;SDS011;4127;47.908;10.850;2024-02-14T09:56:10;1.33;;;1.27;;
8171;SDS011;4127;47.908;10.850;2024-02-14T09:58:39;1.30;;;1.20;;
8171;SDS011;4127;47.908;10.850;2024-02-14T10:01:07;1.47;;;1.37;;
8171;SDS011;4127;47.908;10.850;2024-02-14T10:03:34;1.50;;;1.40;;
8171;SDS011;4127;47.908;10.850;2024-02-14T10:06:03;1.40;;;1.30;;
8171;SDS011;4127;47.908;10.850;2024-02-14T10:08:31;1.73;;;1.63;;
8171;SDS011;4127;47.908;10.850;2024-02-14T10:10:59;1.50;;;1.40;;
8171;SDS011;4127;47.908;10.850;2024-02-14T10:13:26;1.40;;;1.30;;
8171;SDS011;4127;47.908;10.850;2024-02-14T10:15:55;1.50;;;1.40;;
8171;SDS011;4127;47.908;10.850;2024-02-14T10:18:22;1.10;;;1.10;;
8171;SDS011;4127;47.908;10.850;2024-02-14T10:20:55;1.20;;;1.10;;
8171;SDS011;4127;47.908;10.850;2024-02-14T10:23:23;1.53;;;1.43;;
8171;SDS011;4127;47.908;10.850;2024-02-14T10:25:52;1.40;;;1.30;;
8171;SDS011;4127;47.908;10.850;2024-02-14T10:28:20;1.30;;;1.20;;
8171;SDS011;4127;47.908;10.850;2024-02-14T10:30:58;1.57;;;1.40;;
8171;SDS011;4127;47.908;10.850;2024-02-14T10:33:29;1.10;;;1.07;;
8171;SDS011;4127;47.908;10.850;2024-02-14T10:35:56;1.40;;;1.30;;
8171;SDS011;4127;47.908;10.850;2024-02-14T10:38:30;1.90;;;1.23;;
8171;SDS011;4127;47.908;10.850;2024-02-14T10:40:59;1.27;;;1.27;;
8171;SDS011;4127;47.908;10.850;2024-02-14T10:43:27;1.40;;;1.30;;
8171;SDS011;4127;47.908;10.850;2024-02-14T10:45:55;1.93;;;1.47;;
8171;SDS011;4127;47.908;10.850;2024-02-14T10:48:25;1.20;;;1.10;;
8171;SDS011;4127;47.908;10.850;2024-02-14T10:51:01;1.33;;;1.23;;
8171;SDS011;4127;47.908;10.850;2024-02-14T10:53:32;1.40;;;1.30;;
8171;SDS011;4127;47.908;10.850;2024-02-14T10:56:01;1.40;;;1.30;;
8171;SDS011;4127;47.908;10.850;2024-02-14T10:58:29;1.80;;;1.40;;
8171;SDS011;4127;47.908;10.850;2024-02-14T11:00:59;1.30;;;1.30;;
8171;SDS011;4127;47.908;10.850;2024-02-14T11:03:27;1.63;;;1.20;;
8171;SDS011;4127;47.908;10.850;2024-02-14T11:06:00;1.50;;;1.40;;
8171;SDS011;4127;47.908;10.850;2024-02-14T11:08:30;1.03;;;1.03;;
8171;SDS011;4127;47.908;10.850;2024-02-14T11:10:59;1.57;;;1.47;;
8171;SDS011;4127;47.908;10.850;2024-02-14T11:13:28;1.50;;;1.40;;
8171;SDS011;4127;47.908;10.850;2024-02-14T11:15:59;1.40;;;1.30;;
8171;SDS011;4127;47.908;10.850;2024-02-14T11:18:28;1.50;;;1.30;;
8171;SDS011;4127;47.908;10.850;2024-02-14T11:21:02;1.47;;;1.37;;
8171;SDS011;4127;47.908;10.850;2024-02-14T11:23:31;1.20;;;1.20;;
8171;SDS011;4127;47.908;10.850;2024-02-14T11:26:01;1.40;;;1.33;;
8171;SDS011;4127;47.908;10.850;2024-02-14T11:28:30;1.60;;;1.50;;
8171;SDS011;4127;47.908;10.850;2024-02-14T11:31:01;1.70;;;1.60;;
8171;SDS011;4127;47.908;10.850;2024-02-14T11:33:30;1.47;;;1.37;;
8171;SDS011;4127;47.908;10.850;2024-02-14T11:35:58;1.63;;;1.53;;
8171;SDS011;4127;47.908;10.850;2024-02-14T11:38:34;1.50;;;1.40;;
8171;SDS011;4127;47.908;10.850;2024-02-14T11:41:01;1.53;;;1.30;;
8171;SDS011;4127;47.908;10.850;2024-02-14T11:43:30;1.50;;;1.40;;
8171;SDS011;4127;47.908;10.850;2024-02-14T11:45:58;1.95;;;1.75;;
8171;SDS011;4127;47.908;10.850;2024-02-14T11:48:25;1.93;;;1.70;;
8171;SDS011;4127;47.908;10.850;2024-02-14T11:50:53;1.60;;;1.50;;
8171;SDS011;4127;47.908;10.850;2024-02-14T11:53:20;1.10;;;1.10;;
8171;SDS011;4127;47.908;10.850;2024-02-14T11:55:47;1.30;;;1.20;;
8171;SDS011;4127;47.908;10.850;2024-02-14T11:58:15;1.30;;;1.20;;
8171;SDS011;4127;47.908;10.850;2024-02-14T12:00:44;2.03;;;1.83;;
8171;SDS011;4127;47.908;10.850;2024-02-14T12:03:13;3.20;;;2.00;;
8171;SDS011;4127;47.908;10.850;2024-02-14T12:05:47;1.50;;;1.40;;
8171;SDS011;4127;47.908;10.850;2024-02-14T12:08:18;1.83;;;1.70;;
8171;SDS011;4127;47.908;10.850;2024-02-14T12:10:46;1.83;;;1.73;;
8171;SDS011;4127;47.908;10.850;2024-02-14T12:13:14;1.90;;;1.80;;
8171;SDS011;4127;47.908;10.850;2024-02-14T12:15:45;1.80;;;1.70;;
8171;SDS011;4127;47.908;10.850;2024-02-14T12:18:13;1.73;;;1.63;;
8171;SDS011;4127;47.908;10.850;2024-02-14T12:20:42;1.20;;;1.20;;
8171;SDS011;4127;47.908;10.850;2024-02-14T12:23:16;3.50;;;2.97;;
8171;SDS011;4127;47.908;10.850;2024-02-14T12:25:47;2.00;;;1.80;;
8171;SDS011;4127;47.908;10.850;2024-02-14T12:28:17;1.43;;;1.33;;
8171;SDS011;4127;47.908;10.850;2024-02-14T12:30:46;2.10;;;1.67;;
8171;SDS011;4127;47.908;10.850;2024-02-14T12:33:23;1.60;;;1.50;;
8171;SDS011;4127;47.908;10.850;2024-02-14T12:35:52;1.50;;;1.40;;
8171;SDS011;4127;47.908;10.850;2024-02-14T12:38:21;2.13;;;1.27;;
8171;SDS011;4127;47.908;10.850;2024-02-14T12:40:50;1.47;;;1.37;;
8171;SDS011;4127;47.908;10.850;2024-02-14T12:43:20;2.17;;;1.30;;
8171;SDS011;4127;47.908;10.850;2024-02-14T12:45:48;1.50;;;1.40;;
8171;SDS011;4127;47.908;10.850;2024-02-14T12:48:21;1.37;;;1.27;;
8171;SDS011;4127;47.908;10.850;2024-02-14T12:50:50;1.10;;;1.10;;
8171;SDS011;4127;47.908;10.850;2024-02-14T12:53:18;1.37;;;1.27;;
8171;SDS011;4127;47.908;10.850;2024-02-14T12:55:46;1.80;;;1.70;;
8171;SDS011;4127;47.908;10.850;2024-02-14T12:58:13;2.97;;;2.67;;
8171;SDS011;4127;47.908;10.850;2024-02-14T13:00:41;1.47;;;1.37;;
8171;SDS011;4127;47.908;10.850;2024-02-14T13:03:10;1.30;;;1.20;;
8171;SDS011;4127;47.908;10.850;2024-02-14T13:05:41;1.43;;;1.33;;
8171;SDS011;4127;47.908;10.850;2024-02-14T13:08:08;1.40;;;1.30;;
8171;SDS011;4127;47.908;10.850;2024-02-14T13:10:37;1.00;;;1.00;;
8171;SDS011;4127;47.908;10.850;2024-02-14T13:13:04;2.17;;;1.40;;
8171;SDS011;4127;47.908;10.850;2024-02-14T13:15:31;1.10;;;1.10;;
8171;SDS011;4127;47.908;10.850;2024-02-14T13:17:58;1.40;;;1.30;;
8171;SDS011;4127;47.908;10.850;2024-02-14T13:20:27;1.43;;;1.33;;
8171;SDS011;4127;47.908;10.850;2024-02-14T13:22:55;1.20;;;1.20;;
8171;SDS011;4127;47.908;10.850;2024-02-14T13:25:22;1.57;;;1.47;;
8171;SDS011;4127;47.908;10.850;2024-02-14T13:27:49;1.33;;;1.20;;
8171;SDS011;4127;47.908;10.850;2024-02-14T13:30:15;1.30;;;1.20;;
8171;SDS011;4127;47.908;10.850;2024-02-14T13:32:45;1.33;;;1.30;;
8171;SDS011;4127;47.908;10.850;2024-02-14T13:35:12;1.37;;;1.27;;
8171;SDS011;4127;47.908;10.850;2024-02-14T13:37:40;1.37;;;1.27;;
8171;SDS011;4127;47.908;10.850;2024-02-14T13:40:07;1.13;;;1.03;;
8171;SDS011;4127;47.908;10.850;2024-02-14T13:42:38;1.40;;;1.30;;
8171;SDS011;4127;47.908;10.850;2024-02-14T13:45:05;1.47;;;1.20;;
8171;SDS011;4127;47.908;10.850;2024-02-14T13:47:37;1.57;;;1.47;;
8171;SDS011;4127;47.908;10.850;2024-02-14T13:50:09;1.90;;;1.30;;
8171;SDS011;4127;47.908;10.850;2024-02-14T13:52:36;1.73;;;1.63;;
8171;SDS011;4127;47.908;10.850;2024-02-14T13:55:03;1.20;;;1.20;;
8171;SDS011;4127;47.908;10.850;2024-02-14T13:57:33;2.00;;;1.80;;
8171;SDS011;4127;47.908;10.850;2024-02-14T14:00:04;1.80;;;1.70;;
8171;SDS011;4127;47.908;10.850;2024-02-14T14:02:32;1.20;;;1.20;;
8171;SDS011;4127;47.908;10.850;2024-02-14T14:04:59;1.77;;;1.67;;
8171;SDS011;4127;47.908;10.850;2024-02-14T14:07:26;2.13;;;1.80;;
8171;SDS011;4127;47.908;10.850;2024-02-14T14:09:53;1.90;;;1.80;;
8171;SDS011;4127;47.908;10.850;2024-02-14T14:12:20;1.90;;;1.80;;
8171;SDS011;4127;47.908;10.850;2024-02-14T14:14:47;1.70;;;1.60;;
8171;SDS011;4127;47.908;10.850;2024-02-14T14:17:14;1.50;;;1.40;;
8171;SDS011;4127;47.908;10.850;2024-02-14T14:19:41;2.87;;;2.40;;
8171;SDS011;4127;47.908;10.850;2024-02-14T14:22:08;4.30;;;3.20;;
8171;SDS011;4127;47.908;10.850;2024-02-14T14:24:36;2.50;;;2.30;;
8171;SDS011;4127;47.908;10.850;2024-02-14T14:27:03;1.60;;;1.50;;
8171;SDS011;4127;47.908;10.850;2024-02-14T14:29:30;1.30;;;1.20;;
8171;SDS011;4127;47.908;10.850;2024-02-14T14:31:58;1.70;;;1.60;;
8171;SDS011;4127;47.908;10.850;2024-02-14T14:34:25;1.70;;;1.60;;
8171;SDS011;4127;47.908;10.850;2024-02-14T14:36:53;1.20;;;1.20;;
8171;SDS011;4127;47.908;10.850;2024-02-14T14:39:20;1.37;;;1.30;;
8171;SDS011;4127;47.908;10.850;2024-02-14T14:41:47;1.50;;;1.40;;
8171;SDS011;4127;47.908;10.850;2024-02-14T14:44:15;1.50;;;1.40;;
8171;SDS011;4127;47.908;10.850;2024-02-14T14:46:42;1.60;;;1.50;;
8171;SDS011;4127;47.908;10.850;2024-02-14T14:49:09;1.77;;;1.67;;
8171;SDS011;4127;47.908;10.850;2024-02-14T14:51:37;1.50;;;1.40;;
8171;SDS011;4127;47.908;10.850;2024-02-14T14:54:04;1.97;;;1.50;;
8171;SDS011;4127;47.908;10.850;2024-02-14T14:56:31;1.50;;;1.40;;
8171;SDS011;4127;47.908;10.850;2024-02-14T14:58:58;1.73;;;1.63;;
8171;SDS011;4127;47.908;10.850;2024-02-14T15:01:26;1.50;;;1.40;;
8171;SDS011;4127;47.908;10.850;2024-02-14T15:03:54;1.77;;;1.40;;
8171;SDS011;4127;47.908;10.850;2024-02-14T15:06:21;1.50;;;1.40;;
8171;SDS011;4127;47.908;10.850;2024-02-14T15:08:48;1.50;;;1.40;;